Hellas Glory — 9HWN9 — position and weather

sailwx.info

Track history (hours):
 
Tides and Currents Weather Stations Pressure Air Temp Water Temp Dewpoint Dewpoint Depression Visibility Wind Speed Wind Dir Waves Ship Positions

Hellas Glory

Last reported at 2015-Aug-02 03:33 UTC. Time now 2015-Aug-02 08:21 UTC.
Position N 22°08' E 113°48'.

Length 225 m; draft 10.4 m.

Type: Tanker. MMSI: 249636000.

Date/timePositionNaut miles runAvg speedWind from/ knotsBaromVisibWave heightAir tempDewpointWater temp
2015-Aug-02 03:33N 22°08' E 113°48'1110.9
2015-Aug-02 02:33N 22°18' E 113°48'2812.2
2015-Aug-02 00:14N 22°46' E 113°39'6 0.1
2015-Jul-31 04:21N 22°49' E 113°34'1 1.4
2015-Jul-31 03:31N 22°49' E 113°35'7 7.1
2015-Jul-31 02:28N 22°43' E 113°40'1010.7
2015-Jul-31 01:29N 22°33' E 113°44'1212.6
2015-Jul-31 00:33N 22°22' E 113°47'1111.3
2015-Jul-30 23:33N 22°11' E 113°50'8 7.9
2015-Jul-30 22:34N 22°03' E 113°51'3 2.7
2015-Jul-30 21:34N 22°01' E 113°53'  
2015-Jul-26 23:24N 01°15' E 104°05'1214.4
2015-Jul-26 22:33N 01°12' E 103°53'10 3.2
2015-Jul-26 19:21N 01°10' E 103°43'0 0.0
2015-Jul-26 16:33N 01°10' E 103°43'0 0.1
2015-Jul-26 14:30N 01°10' E 103°43'0 0.0
2015-Jul-26 13:15N 01°10' E 103°43'0 0.0
2015-Jul-26 12:27N 01°10' E 103°43'0 0.0
2015-Jul-26 11:15N 01°10' E 103°43'0 0.0
2015-Jul-26 10:30N 01°10' E 103°43'0 0.1
2015-Jul-26 08:18N 01°10' E 103°43'0 0.6
2015-Jul-26 07:32N 01°10' E 103°43'2 2.1
2015-Jul-26 06:29N 01°11' E 103°41'14812.4
2015-Jul-25 18:33N 02°27' E 101°34'2814.2
2015-Jul-25 16:34N 02°43' E 101°10'2813.9
2015-Jul-25 14:33N 02°59' E 100°48'2613.1
2015-Jul-25 12:33N 03°17' E 100°28'3015.1
2015-Jul-25 10:33N 03°39' E 100°07'  
Track history (hours):
 
Tides and Currents Weather Stations Pressure Air Temp Water Temp Dewpoint Dewpoint Depression Visibility Wind Speed Wind Dir Waves Ship Positions

Hellas Glory

Last reported at 2015-Aug-02 03:33 UTC. Time now 2015-Aug-02 08:21 UTC.
Position N 22°08' E 113°48'.

Length 225 m; draft 10.4 m.

Type: Tanker. MMSI: 249636000.

Date/timePositionNaut miles runAvg speedWind from/ knotsBaromVisibWave heightAir tempDewpointWater temp
2015-Aug-02 03:33N 22°08' E 113°48'1110.9
2015-Aug-02 02:33N 22°18' E 113°48'2812.2
2015-Aug-02 00:14N 22°46' E 113°39'6 0.1
2015-Jul-31 04:21N 22°49' E 113°34'1 1.4
2015-Jul-31 03:31N 22°49' E 113°35'7 7.1
2015-Jul-31 02:28N 22°43' E 113°40'1010.7
2015-Jul-31 01:29N 22°33' E 113°44'1212.6
2015-Jul-31 00:33N 22°22' E 113°47'1111.3
2015-Jul-30 23:33N 22°11' E 113°50'8 7.9
2015-Jul-30 22:34N 22°03' E 113°51'3 2.7
2015-Jul-30 21:34N 22°01' E 113°53'  
2015-Jul-26 23:24N 01°15' E 104°05'1214.4
2015-Jul-26 22:33N 01°12' E 103°53'10 3.2
2015-Jul-26 19:21N 01°10' E 103°43'0 0.0
2015-Jul-26 16:33N 01°10' E 103°43'0 0.1
2015-Jul-26 14:30N 01°10' E 103°43'0 0.0
2015-Jul-26 13:15N 01°10' E 103°43'0 0.0
2015-Jul-26 12:27N 01°10' E 103°43'0 0.0
2015-Jul-26 11:15N 01°10' E 103°43'0 0.0
2015-Jul-26 10:30N 01°10' E 103°43'0 0.1
2015-Jul-26 08:18N 01°10' E 103°43'0 0.6
2015-Jul-26 07:32N 01°10' E 103°43'2 2.1
2015-Jul-26 06:29N 01°11' E 103°41'14812.4
2015-Jul-25 18:33N 02°27' E 101°34'2814.2
2015-Jul-25 16:34N 02°43' E 101°10'2813.9
2015-Jul-25 14:33N 02°59' E 100°48'2613.1
2015-Jul-25 12:33N 03°17' E 100°28'3015.1
2015-Jul-25 10:33N 03°39' E 100°07'  

Dump ship's entire track history